Terminal Aerodrome Forecast
Issued by NWS Northern Indiana

Home | Current Version | Previous Version | Graphics & Text | Print | Product List | Glossary On
Versions: 1 2 3 4 5 6 7 8 9 10 11 12 13
000
FTUS43 KIWX 221700
TAFFWA
TAF
KFWA 221720Z 2218/2318 32017G26KT P6SM FEW040
     FM222300 33012G18KT P6SM SKC
     FM230200 33006KT P6SM SKC=

USA.gov is the U.S. government's official web portal to all federal, state and local government web resources and services.